Time;durP1;ratioP1;P1;durP2;ratioP2;P2;SDS_P1;SDS_P2;PMS_P1;PMS_P2;Temp;Humidity;BMP_temperature;BMP_pressure;BME280_temperature;BME280_humidity;BME280_pressure;Samples;Min_cycle;Max_cycle;Signal;HPM_P1;HPM_P2
2022/09/28 00:02:10;;;;;;;;;;;9.60;99.90;;;;;;4979869;28;20328;-64
2022/09/28 00:04:38;;;;;;;;;;;9.50;99.90;;;;;;4988890;28;19968;-66
2022/09/28 00:07:05;;;;;;;;;;;9.50;99.90;;;;;;4989151;28;19971;-66
2022/09/28 00:09:33;;;;;;;;;;;9.60;99.90;;;;;;4988999;28;19968;-66
2022/09/28 00:12:01;;;;;;;;;;;9.60;99.90;;;;;;4989122;28;19968;-67
2022/09/28 00:14:31;;;;;;;;;;;9.60;99.90;;;;;;4988895;28;19968;-66
2022/09/28 00:16:59;;;;;;;;;;;9.60;99.90;;;;;;4989109;28;19975;-66
2022/09/28 00:19:26;;;;;;;;;;;9.60;99.90;;;;;;4988760;28;19973;-66
2022/09/28 00:21:54;;;;;;;;;;;9.70;99.90;;;;;;4988869;28;19974;-66
2022/09/28 00:24:22;;;;;;;;;;;9.60;99.90;;;;;;4988727;28;19968;-66
2022/09/28 00:26:55;;;;;;;;;;;9.60;99.90;;;;;;4992313;28;20007;-66
2022/09/28 00:29:23;;;;;;;;;;;9.50;99.90;;;;;;4992215;28;19975;-66
2022/09/28 00:31:55;;;;;;;;;;;9.60;99.90;;;;;;4991947;28;19967;-66
2022/09/28 00:34:24;;;;;;;;;;;9.70;99.90;;;;;;4992012;28;20066;-66
2022/09/28 00:36:52;;;;;;;;;;;9.60;99.90;;;;;;4992223;28;19974;-66
2022/09/28 00:39:20;;;;;;;;;;;9.70;99.90;;;;;;4992042;28;19978;-66
2022/09/28 00:41:48;;;;;;;;;;;9.70;99.90;;;;;;4991614;28;19992;-66
2022/09/28 00:44:33;;;;;;;;;;;9.60;99.90;;;;;;4991633;28;20444;-66
2022/09/28 00:47:03;;;;;;;;;;;9.60;99.90;;;;;;4992104;28;20355;-66
2022/09/28 00:49:32;;;;;;;;;;;9.60;99.90;;;;;;4991778;28;20059;-64
2022/09/28 00:52:01;;;;;;;;;;;9.60;99.90;;;;;;4991798;28;19968;-66
2022/09/28 00:54:29;;;;;;;;;;;9.60;99.90;;;;;;4991610;28;19968;-66
2022/09/28 00:56:57;;;;;;;;;;;9.60;99.90;;;;;;4992027;28;19982;-66
2022/09/28 00:59:25;;;;;;;;;;;9.60;99.90;;;;;;4991650;28;19968;-65
2022/09/28 01:01:53;;;;;;;;;;;9.50;99.90;;;;;;4991803;28;19972;-66
2022/09/28 01:04:23;;;;;;;;;;;9.60;99.90;;;;;;4991434;28;19968;-65
2022/09/28 01:06:57;;;;;;;;;;;9.50;99.90;;;;;;4991820;28;20037;-66
2022/09/28 01:09:25;;;;;;;;;;;9.60;99.90;;;;;;4991616;28;20063;-66
2022/09/28 01:11:54;;;;;;;;;;;9.50;99.90;;;;;;4991552;28;19995;-65
2022/09/28 01:14:24;;;;;;;;;;;9.50;99.90;;;;;;4991373;28;20502;-66
2022/09/28 01:16:57;;;;;;;;;;;9.60;99.90;;;;;;4991547;28;20074;-66
2022/09/28 01:19:37;;;;;;;;;;;9.60;99.90;;;;;;4991353;28;19982;-66
2022/09/28 01:22:11;;;;;;;;;;;9.60;99.90;;;;;;4991583;28;20459;-66
2022/09/28 01:24:41;;;;;;;;;;;9.60;99.90;;;;;;4991103;28;19968;-66
2022/09/28 01:27:13;;;;;;;;;;;9.70;99.90;;;;;;4991445;28;19974;-65
2022/09/28 01:29:46;;;;;;;;;;;9.70;99.90;;;;;;4990992;28;19975;-64
2022/09/28 01:32:23;;;;;;;;;;;9.70;99.90;;;;;;4991335;28;19974;-65
2022/09/28 01:34:54;;;;;;;;;;;9.70;99.90;;;;;;4990890;28;20070;-64
2022/09/28 01:37:25;;;;;;;;;;;9.80;99.90;;;;;;4991148;28;19972;-66
2022/09/28 01:39:53;;;;;;;;;;;9.90;99.90;;;;;;4990747;28;20467;-66
2022/09/28 01:42:24;;;;;;;;;;;10.00;99.90;;;;;;4991197;28;19968;-66
2022/09/28 01:44:54;;;;;;;;;;;9.90;99.90;;;;;;4990864;28;19974;-66
2022/09/28 01:47:23;;;;;;;;;;;9.80;99.90;;;;;;4991008;28;19968;-67
2022/09/28 01:49:55;;;;;;;;;;;9.90;99.90;;;;;;4990837;28;19972;-66
2022/09/28 01:52:26;;;;;;;;;;;9.80;99.90;;;;;;4990943;28;19974;-66
2022/09/28 01:54:56;;;;;;;;;;;9.80;99.90;;;;;;4990737;28;19994;-66
2022/09/28 01:57:28;;;;;;;;;;;9.90;99.90;;;;;;4990933;28;19968;-66
2022/09/28 01:59:59;;;;;;;;;;;9.90;99.90;;;;;;4990679;28;19972;-65
2022/09/28 02:02:31;;;;;;;;;;;9.90;99.90;;;;;;4990810;28;20070;-66
2022/09/28 02:05:01;;;;;;;;;;;9.90;99.90;;;;;;4990512;28;19968;-66
2022/09/28 02:07:33;;;;;;;;;;;10.00;99.90;;;;;;4990726;28;19990;-65
2022/09/28 02:10:03;;;;;;;;;;;10.00;99.90;;;;;;4990611;28;19979;-65
2022/09/28 02:12:34;;;;;;;;;;;10.00;99.90;;;;;;4990797;28;20344;-65
2022/09/28 02:15:06;;;;;;;;;;;10.10;99.90;;;;;;4990465;28;20397;-66
2022/09/28 02:17:34;;;;;;;;;;;9.90;99.90;;;;;;4990504;28;19968;-65
2022/09/28 02:20:02;;;;;;;;;;;10.00;99.90;;;;;;4990350;28;19968;-65
2022/09/28 02:22:33;;;;;;;;;;;10.20;99.90;;;;;;4990518;28;19990;-65
2022/09/28 02:25:06;;;;;;;;;;;10.20;99.90;;;;;;4990288;28;19972;-65
2022/09/28 02:27:37;;;;;;;;;;;10.30;99.90;;;;;;4990521;28;19968;-65
2022/09/28 02:30:05;;;;;;;;;;;10.40;99.90;;;;;;4990181;28;19993;-65
2022/09/28 02:32:38;;;;;;;;;;;10.40;99.90;;;;;;4990347;28;20063;-65
2022/09/28 02:35:07;;;;;;;;;;;10.30;99.90;;;;;;4990185;28;19985;-65
2022/09/28 02:37:35;;;;;;;;;;;10.30;99.90;;;;;;4990386;28;19992;-65
2022/09/28 02:40:04;;;;;;;;;;;10.30;99.90;;;;;;4990043;28;19968;-65
2022/09/28 02:42:34;;;;;;;;;;;10.40;99.90;;;;;;4990229;28;19968;-66
2022/09/28 02:45:15;;;;;;;;;;;10.40;99.90;;;;;;4989919;28;19974;-66
2022/09/28 02:47:51;;;;;;;;;;;10.40;99.90;;;;;;4989607;28;19968;-65
2022/09/28 02:50:24;;;;;;;;;;;10.50;99.90;;;;;;4990040;28;20062;-66
2022/09/28 02:53:01;;;;;;;;;;;10.40;99.90;;;;;;4990161;28;19978;-66
2022/09/28 02:55:34;;;;;;;;;;;10.20;99.90;;;;;;4989821;28;19972;-67
2022/09/28 02:58:13;;;;;;;;;;;10.20;99.90;;;;;;4990145;28;19968;-66
2022/09/28 03:00:44;;;;;;;;;;;10.20;99.90;;;;;;4989705;28;19968;-66
2022/09/28 03:03:17;;;;;;;;;;;10.30;99.90;;;;;;4990445;28;20055;-66
2022/09/28 03:05:51;;;;;;;;;;;10.40;99.90;;;;;;4989363;28;20358;-66
2022/09/28 03:08:22;;;;;;;;;;;10.50;99.90;;;;;;4990004;28;19968;-66
2022/09/28 03:10:52;;;;;;;;;;;10.50;99.90;;;;;;4989684;28;19980;-67
2022/09/28 03:13:20;;;;;;;;;;;10.30;99.90;;;;;;4989966;28;19975;-66
2022/09/28 03:15:49;;;;;;;;;;;10.30;99.90;;;;;;4989330;28;19968;-66
2022/09/28 03:18:17;;;;;;;;;;;10.20;99.90;;;;;;4989817;28;19974;-66
2022/09/28 03:20:45;;;;;;;;;;;10.10;99.90;;;;;;4989641;28;19978;-66
2022/09/28 03:23:13;;;;;;;;;;;10.20;99.90;;;;;;4989883;28;20070;-66
2022/09/28 03:25:56;;;;;;;;;;;10.30;99.90;;;;;;4989269;28;19968;-66
2022/09/28 03:28:24;;;;;;;;;;;10.30;99.90;;;;;;4989637;28;20431;-66
2022/09/28 03:30:53;;;;;;;;;;;10.30;99.90;;;;;;4989586;28;19968;-66
2022/09/28 03:33:22;;;;;;;;;;;10.30;99.90;;;;;;4989818;28;20014;-66
2022/09/28 03:35:50;;;;;;;;;;;10.30;99.90;;;;;;4990349;28;19968;-66
2022/09/28 03:38:18;;;;;;;;;;;10.20;99.90;;;;;;4989558;28;20370;-66
2022/09/28 03:40:52;;;;;;;;;;;10.20;99.90;;;;;;4989244;28;19975;-66
2022/09/28 03:43:19;;;;;;;;;;;10.30;99.90;;;;;;4989493;28;19968;-65
2022/09/28 03:45:51;;;;;;;;;;;10.40;99.90;;;;;;4989253;28;19968;-65
2022/09/28 03:48:22;;;;;;;;;;;10.40;99.90;;;;;;4979062;28;19968;-66
2022/09/28 03:50:56;;;;;;;;;;;10.40;99.90;;;;;;4974609;28;20356;-66
2022/09/28 03:53:23;;;;;;;;;;;10.40;99.90;;;;;;4966126;28;19965;-66
2022/09/28 03:55:52;;;;;;;;;;;10.40;99.90;;;;;;4950258;28;19968;-66
2022/09/28 03:58:20;;;;;;;;;;;10.30;99.90;;;;;;4964120;28;20063;-66
2022/09/28 04:00:47;;;;;;;;;;;10.30;99.90;;;;;;4978644;28;19976;-66
2022/09/28 04:03:15;;;;;;;;;;;10.10;99.90;;;;;;4980377;28;19975;-66
2022/09/28 04:05:49;;;;;;;;;;;9.80;99.90;;;;;;4976179;28;19968;-66
2022/09/28 04:08:17;;;;;;;;;;;9.70;99.90;;;;;;4982147;28;20012;-66
2022/09/28 04:10:45;;;;;;;;;;;9.50;99.90;;;;;;4981653;28;19968;-66
2022/09/28 04:13:13;;;;;;;;;;;9.40;99.90;;;;;;4982117;28;20335;-66
2022/09/28 04:15:40;;;;;;;;;;;9.30;99.90;;;;;;4979534;28;19975;-66
2022/09/28 04:18:09;;;;;;;;;;;9.20;99.90;;;;;;4982969;28;19987;-66
2022/09/28 04:20:39;;;;;;;;;;;9.20;99.90;;;;;;4980293;28;19968;-66
2022/09/28 04:23:09;;;;;;;;;;;9.10;99.90;;;;;;4981380;28;19968;-66
2022/09/28 04:25:38;;;;;;;;;;;9.00;99.90;;;;;;4976402;28;19974;-66
2022/09/28 04:30:51;;;;;;;;;;;8.80;99.90;;;;;;4980734;28;21158;-66
2022/09/28 04:33:19;;;;;;;;;;;8.80;99.90;;;;;;4982046;28;20145;-66
2022/09/28 04:35:46;;;;;;;;;;;8.70;99.90;;;;;;5058521;28;19989;-66
2022/09/28 04:38:15;;;;;;;;;;;8.70;99.90;;;;;;5064871;28;20388;-66
2022/09/28 04:41:02;;;;;;;;;;;8.80;99.90;;;;;;5064682;28;20405;-66
2022/09/28 04:43:30;;;;;;;;;;;8.70;99.90;;;;;;5062974;28;21217;-66
2022/09/28 04:45:58;;;;;;;;;;;8.70;99.90;;;;;;5060606;28;19978;-66
2022/09/28 04:48:26;;;;;;;;;;;8.70;99.90;;;;;;5063859;28;20042;-66
2022/09/28 04:50:54;;;;;;;;;;;8.70;99.90;;;;;;5062440;28;19985;-66
2022/09/28 04:53:23;;;;;;;;;;;8.70;99.90;;;;;;5064277;28;19974;-66
2022/09/28 04:55:55;;;;;;;;;;;8.60;99.90;;;;;;5061325;28;19974;-66
2022/09/28 04:58:22;;;;;;;;;;;8.60;99.90;;;;;;5064227;28;20000;-66
2022/09/28 05:00:52;;;;;;;;;;;8.60;99.90;;;;;;5063690;28;20760;-66
2022/09/28 05:03:20;;;;;;;;;;;8.60;99.90;;;;;;5062972;28;19990;-66
2022/09/28 05:05:48;;;;;;;;;;;8.60;99.90;;;;;;5062816;28;20369;-66
2022/09/28 05:08:17;;;;;;;;;;;8.60;99.90;;;;;;5062596;28;19975;-66
2022/09/28 05:10:46;;;;;;;;;;;8.60;99.90;;;;;;5063667;28;19966;-66
2022/09/28 05:13:14;;;;;;;;;;;8.60;99.90;;;;;;5061745;28;19971;-66
2022/09/28 05:15:42;;;;;;;;;;;8.50;99.90;;;;;;5060182;28;19974;-66
2022/09/28 05:18:09;;;;;;;;;;;8.50;99.90;;;;;;5060836;28;19967;-66
2022/09/28 05:20:39;;;;;;;;;;;8.50;99.90;;;;;;5063755;28;19963;-66
2022/09/28 05:23:09;;;;;;;;;;;8.50;99.90;;;;;;5062423;28;19967;-66
2022/09/28 05:25:36;;;;;;;;;;;8.50;99.90;;;;;;5062602;28;20481;-66
2022/09/28 05:28:05;;;;;;;;;;;8.50;99.90;;;;;;5060801;28;19970;-66
2022/09/28 05:30:33;;;;;;;;;;;8.50;99.90;;;;;;5061232;28;19978;-66
2022/09/28 05:33:01;;;;;;;;;;;8.50;99.90;;;;;;5063620;28;19975;-66
2022/09/28 05:35:29;;;;;;;;;;;8.50;99.90;;;;;;5016705;28;19974;-66
2022/09/28 05:38:02;;;;;;;;;;;8.50;99.90;;;;;;4981813;28;19976;-66
2022/09/28 05:40:29;;;;;;;;;;;8.50;99.90;;;;;;4972875;28;19968;-66
2022/09/28 05:42:58;;;;;;;;;;;8.50;99.90;;;;;;4971372;28;19968;-65
2022/09/28 05:45:27;;;;;;;;;;;8.50;99.90;;;;;;4971574;28;19968;-66
2022/09/28 05:47:55;;;;;;;;;;;8.50;99.90;;;;;;4971254;28;19968;-65
2022/09/28 05:50:23;;;;;;;;;;;8.40;99.90;;;;;;4970385;28;19971;-65
2022/09/28 05:52:58;;;;;;;;;;;8.40;99.90;;;;;;4974396;28;20480;-66
2022/09/28 05:55:25;;;;;;;;;;;8.40;99.90;;;;;;4979883;28;20468;-66
2022/09/28 05:57:53;;;;;;;;;;;8.80;99.90;;;;;;4971257;28;19972;-66
2022/09/28 06:00:21;;;;;;;;;;;8.70;99.90;;;;;;4966989;28;19968;-66
2022/09/28 06:02:57;;;;;;;;;;;8.60;99.90;;;;;;4976214;28;19975;-66
2022/09/28 06:05:25;;;;;;;;;;;8.60;99.90;;;;;;4987986;28;19968;-66
2022/09/28 06:07:55;;;;;;;;;;;8.60;99.90;;;;;;4990892;28;19969;-66
2022/09/28 06:10:23;;;;;;;;;;;8.50;99.90;;;;;;4990436;28;19972;-66
2022/09/28 06:12:53;;;;;;;;;;;8.60;99.90;;;;;;4990187;28;19968;-66
2022/09/28 06:15:21;;;;;;;;;;;8.60;99.90;;;;;;4990593;28;19974;-66
2022/09/28 06:17:55;;;;;;;;;;;8.60;99.90;;;;;;4990773;28;19974;-66
2022/09/28 06:20:25;;;;;;;;;;;8.60;99.90;;;;;;4990376;28;19974;-66
2022/09/28 06:22:53;;;;;;;;;;;8.60;99.90;;;;;;4989328;28;20056;-66
2022/09/28 06:25:21;;;;;;;;;;;8.60;99.90;;;;;;4989848;28;19978;-66
2022/09/28 06:27:55;;;;;;;;;;;8.70;99.90;;;;;;4990416;28;20417;-65
2022/09/28 06:30:25;;;;;;;;;;;8.70;99.90;;;;;;4990293;28;19972;-65
2022/09/28 06:32:55;;;;;;;;;;;8.70;99.90;;;;;;4990373;28;19979;-65
2022/09/28 06:35:24;;;;;;;;;;;8.70;99.90;;;;;;4989412;28;19972;-65
2022/09/28 06:37:53;;;;;;;;;;;8.70;99.90;;;;;;4990462;28;19984;-65
2022/09/28 06:40:21;;;;;;;;;;;8.70;99.90;;;;;;4989938;28;20350;-65
2022/09/28 06:42:54;;;;;;;;;;;8.70;99.90;;;;;;4990254;28;20021;-65
2022/09/28 06:45:24;;;;;;;;;;;8.80;99.90;;;;;;4990159;28;19971;-66
2022/09/28 06:47:56;;;;;;;;;;;8.80;99.90;;;;;;4990262;28;20067;-65
2022/09/28 06:50:24;;;;;;;;;;;8.90;99.90;;;;;;4989824;28;19976;-65
2022/09/28 06:52:53;;;;;;;;;;;8.90;99.90;;;;;;4990115;28;19968;-65
2022/09/28 06:55:21;;;;;;;;;;;9.00;99.90;;;;;;4989978;28;20026;-65
2022/09/28 06:57:57;;;;;;;;;;;9.10;99.90;;;;;;4989990;28;19968;-65
2022/09/28 07:00:24;;;;;;;;;;;9.10;99.90;;;;;;4989945;28;20082;-66
2022/09/28 07:02:52;;;;;;;;;;;9.20;99.90;;;;;;4989853;28;20350;-65
2022/09/28 07:05:25;;;;;;;;;;;9.30;99.90;;;;;;4989799;28;19967;-66
2022/09/28 07:07:55;;;;;;;;;;;9.40;99.90;;;;;;4989926;28;19968;-66
2022/09/28 07:10:23;;;;;;;;;;;9.50;99.90;;;;;;4989543;28;19968;-66
2022/09/28 07:12:50;;;;;;;;;;;9.60;99.90;;;;;;4989974;28;20062;-65
2022/09/28 07:15:18;;;;;;;;;;;9.60;99.90;;;;;;4989429;28;19975;-66
2022/09/28 07:17:46;;;;;;;;;;;9.70;99.90;;;;;;4989752;28;19968;-65
2022/09/28 07:20:27;;;;;;;;;;;9.80;99.90;;;;;;4989658;28;19974;-66
2022/09/28 07:22:58;;;;;;;;;;;9.90;99.90;;;;;;4989666;28;19974;-65
2022/09/28 07:25:44;;;;;;;;;;;9.90;99.90;;;;;;4989606;28;20018;-65
2022/09/28 07:28:12;;;;;;;;;;;9.90;99.90;;;;;;4989820;28;19995;-66
2022/09/28 07:30:39;;;;;;;;;;;10.00;99.90;;;;;;4989112;28;19968;-65
2022/09/28 07:33:07;;;;;;;;;;;10.10;99.90;;;;;;4989833;28;20000;-66
2022/09/28 07:35:35;;;;;;;;;;;10.10;99.90;;;;;;4992175;28;19974;-66
2022/09/28 07:38:05;;;;;;;;;;;10.20;99.90;;;;;;4992986;28;19976;-65
2022/09/28 07:43:20;;;;;;;;;;;10.40;99.90;;;;;;4992820;28;19971;-65
2022/09/28 07:45:48;;;;;;;;;;;10.40;99.90;;;;;;4992448;28;19968;-65
2022/09/28 07:48:17;;;;;;;;;;;10.50;99.90;;;;;;4992875;28;20081;-65
2022/09/28 07:50:49;;;;;;;;;;;10.50;99.90;;;;;;4992279;28;19968;-66
2022/09/28 07:53:18;;;;;;;;;;;10.60;99.90;;;;;;4992648;28;19968;-66
2022/09/28 07:55:50;;;;;;;;;;;10.50;99.90;;;;;;4992294;28;20518;-66
2022/09/28 07:58:18;;;;;;;;;;;10.60;99.90;;;;;;4992784;28;19974;-65
2022/09/28 08:00:46;;;;;;;;;;;10.60;99.90;;;;;;4992589;28;19968;-66
2022/09/28 08:03:15;;;;;;;;;;;10.70;99.90;;;;;;4992202;28;20448;-65
2022/09/28 08:05:42;;;;;;;;;;;10.80;99.90;;;;;;4992070;28;19975;-65
2022/09/28 08:08:11;;;;;;;;;;;11.00;99.90;;;;;;4992646;28;19968;-66
2022/09/28 08:10:41;;;;;;;;;;;11.00;99.90;;;;;;4992388;28;19968;-65
2022/09/28 08:13:15;;;;;;;;;;;11.10;99.90;;;;;;4991598;28;19968;-66
2022/09/28 08:15:43;;;;;;;;;;;11.40;99.90;;;;;;4992182;28;19975;-66
2022/09/28 08:18:10;;;;;;;;;;;11.60;99.90;;;;;;4991840;28;19968;-66
2022/09/28 08:23:23;;;;;;;;;;;12.00;99.90;;;;;;4992278;28;19975;-65
2022/09/28 08:25:53;;;;;;;;;;;12.10;99.90;;;;;;4992041;28;19972;-66
2022/09/28 08:28:22;;;;;;;;;;;12.00;99.90;;;;;;4992196;28;19968;-66
2022/09/28 08:30:50;;;;;;;;;;;12.10;99.90;;;;;;4992044;28;19979;-65
2022/09/28 08:33:19;;;;;;;;;;;12.10;99.90;;;;;;4992027;28;19968;-66
2022/09/28 08:35:47;;;;;;;;;;;12.40;99.90;;;;;;4991262;28;19967;-66
2022/09/28 08:38:15;;;;;;;;;;;12.70;99.90;;;;;;4992033;28;20331;-65
2022/09/28 08:40:47;;;;;;;;;;;12.70;99.90;;;;;;4991915;28;19981;-66
2022/09/28 08:43:22;;;;;;;;;;;12.80;99.90;;;;;;4991916;28;19968;-66
2022/09/28 08:45:50;;;;;;;;;;;12.70;99.90;;;;;;4990543;28;20381;-66
2022/09/28 08:51:10;;;;;;;;;;;13.30;99.90;;;;;;4991811;28;19968;-66
2022/09/28 08:53:42;;;;;;;;;;;13.50;99.90;;;;;;4991845;28;19975;-66
2022/09/28 08:56:11;;;;;;;;;;;13.60;99.90;;;;;;4991509;28;19972;-66
2022/09/28 08:58:42;;;;;;;;;;;13.70;99.90;;;;;;4991833;28;19978;-66
2022/09/28 09:01:15;;;;;;;;;;;13.50;99.90;;;;;;4991734;28;19972;-66
2022/09/28 09:03:44;;;;;;;;;;;13.60;99.90;;;;;;4991636;28;19979;-66
2022/09/28 09:06:19;;;;;;;;;;;13.60;99.90;;;;;;4991649;28;19968;-66
2022/09/28 09:08:52;;;;;;;;;;;13.50;99.90;;;;;;4991846;28;19967;-66
2022/09/28 09:11:26;;;;;;;;;;;13.10;99.90;;;;;;4991432;28;19974;-66
2022/09/28 09:14:13;;;;;;;;;;;13.00;99.90;;;;;;4991524;28;19971;-66
2022/09/28 09:16:44;;;;;;;;;;;12.70;99.90;;;;;;4991646;28;19971;-66
2022/09/28 09:19:15;;;;;;;;;;;12.60;99.90;;;;;;4991163;28;20429;-66
2022/09/28 09:21:47;;;;;;;;;;;12.70;99.90;;;;;;4991312;28;19974;-67
2022/09/28 09:24:23;;;;;;;;;;;12.70;99.90;;;;;;4991307;28;20015;-66
2022/09/28 09:26:55;;;;;;;;;;;12.80;99.90;;;;;;4991493;28;20570;-66
2022/09/28 09:29:30;;;;;;;;;;;13.20;99.90;;;;;;4991375;28;20338;-66
2022/09/28 09:32:05;;;;;;;;;;;13.60;99.90;;;;;;4991109;28;19990;-66
2022/09/28 09:34:49;;;;;;;;;;;13.90;99.90;;;;;;4991233;28;20443;-65
2022/09/28 09:37:24;;;;;;;;;;;14.10;99.90;;;;;;5031484;23;19967;-63
2022/09/28 09:40:04;;;;;;;;;;;14.00;99.90;;;;;;5004593;28;19967;-63
2022/09/28 09:42:38;;;;;;;;;;;14.10;99.90;;;;;;5011172;28;19988;-63
2022/09/28 09:45:17;;;;;;;;;;;14.00;99.90;;;;;;5011267;28;19978;-63
2022/09/28 09:47:46;;;;;;;;;;;13.90;99.90;;;;;;4991285;28;19972;-64
2022/09/28 09:50:23;;;;;;;;;;;13.80;99.90;;;;;;4991174;28;19967;-63
2022/09/28 09:52:54;;;;;;;;;;;13.50;99.90;;;;;;4991320;28;20444;-63
2022/09/28 09:55:26;;;;;;;;;;;13.20;99.90;;;;;;4991128;28;19972;-63
2022/09/28 09:57:59;;;;;;;;;;;13.10;99.90;;;;;;4991294;28;20014;-63
2022/09/28 10:00:28;;;;;;;;;;;13.00;99.90;;;;;;4990884;28;19972;-63
2022/09/28 10:02:57;;;;;;;;;;;12.90;99.90;;;;;;4990911;28;20350;-63
2022/09/28 10:05:26;;;;;;;;;;;12.70;99.90;;;;;;4991105;28;19972;-63
2022/09/28 10:07:55;;;;;;;;;;;12.60;99.90;;;;;;4991182;28;19978;-63
2022/09/28 10:10:25;;;;;;;;;;;12.60;99.90;;;;;;4990572;28;19974;-63
2022/09/28 10:12:53;;;;;;;;;;;12.60;99.90;;;;;;4990906;28;19968;-63
2022/09/28 10:15:23;;;;;;;;;;;12.60;99.90;;;;;;4990622;28;19968;-63
2022/09/28 10:17:53;;;;;;;;;;;12.60;99.90;;;;;;4990493;28;19974;-63
2022/09/28 10:20:21;;;;;;;;;;;12.50;99.90;;;;;;4990630;28;19968;-63
2022/09/28 10:22:49;;;;;;;;;;;12.50;99.90;;;;;;4990586;28;19974;-63
2022/09/28 10:25:18;;;;;;;;;;;12.60;99.90;;;;;;4990473;28;19968;-63
2022/09/28 10:27:48;;;;;;;;;;;12.70;99.90;;;;;;4990599;28;19974;-63
2022/09/28 10:30:18;;;;;;;;;;;12.70;99.90;;;;;;4990350;28;20007;-63
2022/09/28 10:32:46;;;;;;;;;;;12.90;99.90;;;;;;4990219;28;20067;-63
2022/09/28 10:35:22;;;;;;;;;;;13.00;99.90;;;;;;4990829;28;19972;-63
2022/09/28 10:37:53;;;;;;;;;;;13.20;99.90;;;;;;4971192;28;20340;-63
2022/09/28 10:40:33;;;;;;;;;;;13.30;99.90;;;;;;4970988;28;19979;-63
2022/09/28 10:43:02;;;;;;;;;;;13.40;99.90;;;;;;4970815;28;20023;-63
2022/09/28 10:45:34;;;;;;;;;;;13.40;99.90;;;;;;4970674;28;19967;-63
2022/09/28 10:48:04;;;;;;;;;;;13.50;99.90;;;;;;4971161;28;19968;-63
2022/09/28 10:50:34;;;;;;;;;;;13.40;99.90;;;;;;4970778;28;19979;-63
2022/09/28 10:53:12;;;;;;;;;;;13.30;99.90;;;;;;4970495;28;20071;-63
2022/09/28 10:55:39;;;;;;;;;;;13.30;99.90;;;;;;4970671;28;19969;-63
2022/09/28 10:58:25;;;;;;;;;;;13.30;99.90;;;;;;4970899;28;20067;-63
2022/09/28 11:00:58;;;;;;;;;;;13.30;99.90;;;;;;4969900;28;20455;-63
2022/09/28 11:03:27;;;;;;;;;;;13.30;99.90;;;;;;4970814;28;19968;-63
2022/09/28 11:05:57;;;;;;;;;;;13.30;99.90;;;;;;4971201;28;20065;-63
2022/09/28 11:08:26;;;;;;;;;;;13.30;99.90;;;;;;4970494;28;19972;-63
2022/09/28 11:11:05;;;;;;;;;;;13.30;99.90;;;;;;4970276;28;19976;-63
2022/09/28 11:13:38;;;;;;;;;;;13.30;99.90;;;;;;4970644;28;19978;-63
2022/09/28 11:16:06;;;;;;;;;;;13.30;99.90;;;;;;4970372;28;20332;-63
2022/09/28 11:18:33;;;;;;;;;;;13.50;99.90;;;;;;4970276;28;20344;-64
2022/09/28 11:21:09;;;;;;;;;;;13.60;99.90;;;;;;4970341;28;19975;-63
2022/09/28 11:23:40;;;;;;;;;;;13.70;99.90;;;;;;4970476;28;20062;-63
2022/09/28 11:26:11;;;;;;;;;;;13.90;99.90;;;;;;4970531;28;19978;-64
2022/09/28 11:28:50;;;;;;;;;;;14.20;99.90;;;;;;4970866;28;19990;-63
2022/09/28 11:31:23;;;;;;;;;;;14.30;99.90;;;;;;4970047;28;19978;-63
2022/09/28 11:34:00;;;;;;;;;;;14.20;99.90;;;;;;4970169;28;19974;-63
2022/09/28 11:36:34;;;;;;;;;;;14.10;99.90;;;;;;4979653;28;20083;-62
2022/09/28 11:39:07;;;;;;;;;;;14.10;99.90;;;;;;4989736;28;19968;-63
2022/09/28 11:41:43;;;;;;;;;;;14.30;99.90;;;;;;4989533;28;19968;-62
2022/09/28 11:44:21;;;;;;;;;;;14.40;99.90;;;;;;4989447;28;19968;-63
2022/09/28 11:46:51;;;;;;;;;;;14.30;99.90;;;;;;4989368;28;19968;-63
2022/09/28 11:49:27;;;;;;;;;;;14.10;99.90;;;;;;4989309;28;20074;-63
2022/09/28 11:51:57;;;;;;;;;;;14.00;99.90;;;;;;4989640;28;19975;-63
2022/09/28 11:54:27;;;;;;;;;;;13.90;99.90;;;;;;4989585;28;19968;-63
2022/09/28 11:56:57;;;;;;;;;;;13.70;99.90;;;;;;4989427;28;20058;-62
2022/09/28 11:59:27;;;;;;;;;;;13.70;99.90;;;;;;4989409;28;19968;-63
2022/09/28 12:01:56;;;;;;;;;;;13.70;99.90;;;;;;4989208;28;19972;-63
2022/09/28 12:04:26;;;;;;;;;;;13.60;99.90;;;;;;4989310;28;19968;-63
2022/09/28 12:06:58;;;;;;;;;;;13.70;99.90;;;;;;4989031;28;20059;-63
2022/09/28 12:09:30;;;;;;;;;;;14.10;99.90;;;;;;4989379;28;19968;-63
2022/09/28 12:12:00;;;;;;;;;;;14.50;99.90;;;;;;4989371;28;19972;-63
2022/09/28 12:14:29;;;;;;;;;;;14.70;99.90;;;;;;4989457;28;20333;-63
2022/09/28 12:17:00;;;;;;;;;;;14.80;99.90;;;;;;4989039;28;19975;-63
2022/09/28 12:19:38;;;;;;;;;;;14.80;99.90;;;;;;4989249;28;19980;-63
2022/09/28 12:22:12;;;;;;;;;;;14.60;99.90;;;;;;4991790;28;20078;-63
2022/09/28 12:24:42;;;;;;;;;;;14.60;99.90;;;;;;4992368;28;19972;-63
2022/09/28 12:27:14;;;;;;;;;;;14.50;99.90;;;;;;4992347;28;19982;-63
2022/09/28 12:29:46;;;;;;;;;;;14.50;99.90;;;;;;4992357;28;20354;-63
2022/09/28 12:32:16;;;;;;;;;;;14.50;99.90;;;;;;4992457;28;20379;-63
2022/09/28 12:34:43;;;;;;;;;;;14.30;99.90;;;;;;4991627;28;20747;-63
2022/09/28 12:37:24;;;;;;;;;;;14.00;99.90;;;;;;4991828;28;19968;-64
2022/09/28 12:40:02;;;;;;;;;;;13.80;99.90;;;;;;4991989;28;20448;-63
2022/09/28 12:42:43;;;;;;;;;;;13.80;99.90;;;;;;4992235;28;19975;-64
2022/09/28 12:45:23;;;;;;;;;;;13.70;99.90;;;;;;4991787;28;20066;-63
2022/09/28 12:48:09;;;;;;;;;;;13.70;99.90;;;;;;4992121;28;20078;-64
2022/09/28 12:50:40;;;;;;;;;;;13.80;99.90;;;;;;4991865;28;19969;-64
2022/09/28 12:53:26;;;;;;;;;;;13.80;99.90;;;;;;4991881;28;19968;-63
2022/09/28 12:55:58;;;;;;;;;;;14.00;99.90;;;;;;4992087;28;19979;-64
2022/09/28 12:58:33;;;;;;;;;;;14.00;99.90;;;;;;4992150;28;19967;-64
2022/09/28 13:01:07;;;;;;;;;;;13.80;99.90;;;;;;4991547;28;19968;-63
2022/09/28 13:03:45;;;;;;;;;;;13.80;99.90;;;;;;4991650;28;20012;-63
2022/09/28 13:06:19;;;;;;;;;;;13.80;99.90;;;;;;4991841;28;20421;-64
2022/09/28 13:08:55;;;;;;;;;;;14.00;99.90;;;;;;4991844;28;19974;-63
2022/09/28 13:11:30;;;;;;;;;;;14.10;99.90;;;;;;4991470;28;19967;-63
2022/09/28 13:14:07;;;;;;;;;;;14.20;99.90;;;;;;4991685;28;19976;-64
2022/09/28 13:16:39;;;;;;;;;;;14.20;99.90;;;;;;4992204;28;20015;-64
2022/09/28 13:19:11;;;;;;;;;;;14.10;99.90;;;;;;4991332;28;19975;-64
2022/09/28 13:21:43;;;;;;;;;;;14.10;99.90;;;;;;4991991;28;19999;-64
2022/09/28 13:24:15;;;;;;;;;;;14.00;99.90;;;;;;4991232;28;20456;-64
2022/09/28 13:27:03;;;;;;;;;;;14.00;99.90;;;;;;4991886;28;19996;-64
2022/09/28 13:29:33;;;;;;;;;;;13.90;99.90;;;;;;4991394;28;19968;-64
2022/09/28 13:32:02;;;;;;;;;;;14.00;99.90;;;;;;4991261;28;20011;-64
2022/09/28 13:34:32;;;;;;;;;;;14.00;99.90;;;;;;4991338;28;20138;-64
2022/09/28 13:37:08;;;;;;;;;;;14.00;99.90;;;;;;4991274;28;20385;-62
2022/09/28 13:39:51;;;;;;;;;;;14.00;99.90;;;;;;4991051;28;19990;-63
2022/09/28 13:42:29;;;;;;;;;;;13.90;99.90;;;;;;4991573;28;19976;-64
2022/09/28 13:45:11;;;;;;;;;;;14.00;99.90;;;;;;4991093;28;19974;-64
2022/09/28 13:47:48;;;;;;;;;;;14.20;99.90;;;;;;4999227;28;19971;-64
2022/09/28 13:50:21;;;;;;;;;;;14.20;99.90;;;;;;4991022;28;19968;-64
2022/09/28 13:52:52;;;;;;;;;;;14.40;99.90;;;;;;4991350;28;20445;-64
2022/09/28 13:55:35;;;;;;;;;;;14.50;99.90;;;;;;4990808;28;19990;-63
2022/09/28 13:58:04;;;;;;;;;;;14.50;99.90;;;;;;4991278;28;20051;-64
2022/09/28 14:00:35;;;;;;;;;;;14.70;99.90;;;;;;4990738;28;19968;-64
2022/09/28 14:03:10;;;;;;;;;;;14.80;99.90;;;;;;4991459;28;19968;-64
2022/09/28 14:05:45;;;;;;;;;;;14.90;99.90;;;;;;4990711;28;20053;-63
2022/09/28 14:08:32;;;;;;;;;;;15.30;99.90;;;;;;4991191;28;19968;-64
2022/09/28 14:11:24;;;;;;;;;;;15.70;99.90;;;;;;4991072;28;20470;-64
2022/09/28 14:14:00;;;;;;;;;;;15.60;99.90;;;;;;5000302;28;20365;-64
2022/09/28 14:16:29;;;;;;;;;;;15.50;99.90;;;;;;4990579;28;19972;-64
2022/09/28 14:18:59;;;;;;;;;;;15.30;99.90;;;;;;4990509;28;20071;-64
2022/09/28 14:21:47;;;;;;;;;;;15.20;99.90;;;;;;4990501;28;20432;-64
2022/09/28 14:24:21;;;;;;;;;;;15.30;99.90;;;;;;4991232;28;20519;-64
2022/09/28 14:27:15;;;;;;;;;;;15.10;99.90;;;;;;4990660;28;19976;-63
2022/09/28 14:29:45;;;;;;;;;;;14.90;99.90;;;;;;5013634;28;19972;-64
2022/09/28 14:32:23;;;;;;;;;;;14.70;99.90;;;;;;4991271;28;19968;-64
2022/09/28 14:34:59;;;;;;;;;;;14.60;99.90;;;;;;4990190;28;20454;-64
2022/09/28 14:43:23;;;;;;;;;;;14.20;99.90;;;;;;4990285;28;19975;-64
2022/09/28 14:46:13;;;;;;;;;;;14.00;99.90;;;;;;4990427;28;20011;-64
2022/09/28 14:48:42;;;;;;;;;;;13.90;99.90;;;;;;4990402;28;20397;-63
2022/09/28 14:51:36;;;;;;;;;;;13.70;99.90;;;;;;4990887;28;19968;-64
2022/09/28 14:54:05;;;;;;;;;;;13.60;99.90;;;;;;4990095;28;19971;-63
2022/09/28 14:56:38;;;;;;;;;;;13.40;99.90;;;;;;4990920;28;19968;-64
2022/09/28 14:59:07;;;;;;;;;;;13.30;99.90;;;;;;4990945;28;19974;-64
2022/09/28 15:01:36;;;;;;;;;;;13.20;99.90;;;;;;4990187;28;19975;-64
2022/09/28 15:04:09;;;;;;;;;;;13.20;99.90;;;;;;4989708;28;22522;-64